Grande Prairie Airport

CYQU | YQU

Grande Prairie , Alberta , Canada

Sunday, January 26th, 2020 | 16:29

Weather

CYQU 262300Z 27004KT 25SM BKN170 BKN240 M08/M08 A2964 RMK AC5CI2 SLP090

Charts

No Charts Available

Gates

31 Available

Runways

2 Available

Events

No events for this airport


New event